Time;durP1;ratioP1;P1;durP2;ratioP2;P2;SDS_P1;SDS_P2;PMS_P1;PMS_P2;Temp;Humidity;BMP_temperature;BMP_pressure;BME280_temperature;BME280_humidity;BME280_pressure;Samples;Min_cycle;Max_cycle;Signal;HPM_P1;HPM_P2
2021/05/01 00:00:20;;;;;;;4.40;4.00;;;15.60;66.50;;;;;;5033327;28;20057;-76
2021/05/01 00:02:46;;;;;;;4.97;4.40;;;15.60;66.50;;;;;;5031670;28;20044;-78
2021/05/01 00:05:12;;;;;;;5.38;4.13;;;15.50;66.40;;;;;;5032911;28;20116;-76
2021/05/01 00:07:38;;;;;;;4.40;4.00;;;15.50;66.30;;;;;;5032658;28;20547;-75
2021/05/01 00:10:07;;;;;;;4.53;3.92;;;15.50;66.30;;;;;;5033143;28;20041;-76
2021/05/01 00:12:33;;;;;;;4.63;4.22;;;15.50;66.30;;;;;;5048580;28;20442;-75
2021/05/01 00:14:59;;;;;;;4.47;4.07;;;15.50;66.30;;;;;;5032929;28;20099;-74
2021/05/01 00:17:25;;;;;;;4.82;3.78;;;15.50;66.30;;;;;;5048319;28;20064;-74
2021/05/01 00:19:51;;;;;;;4.88;4.38;;;15.50;66.20;;;;;;5048617;28;20124;-74
2021/05/01 00:22:17;;;;;;;4.90;4.40;;;15.50;66.20;;;;;;5033027;28;20041;-75
2021/05/01 00:24:43;;;;;;;4.72;4.20;;;15.50;66.40;;;;;;5033181;28;20049;-73
2021/05/01 00:27:09;;;;;;;3.88;3.55;;;15.50;66.40;;;;;;5032913;28;20178;-74
2021/05/01 00:29:35;;;;;;;4.93;4.35;;;15.50;66.40;;;;;;5033049;28;20034;-74
2021/05/01 00:32:02;;;;;;;4.65;4.25;;;15.50;66.40;;;;;;5032921;28;20044;-75
2021/05/01 00:34:28;;;;;;;4.65;3.97;;;15.50;66.40;;;;;;5032658;28;20171;-73
2021/05/01 00:36:54;;;;;;;4.25;3.75;;;15.50;66.60;;;;;;5032833;28;20029;-75
2021/05/01 00:39:20;;;;;;;3.88;3.58;;;15.50;66.50;;;;;;5048246;28;20045;-75
2021/05/01 00:41:46;;;;;;;4.05;3.67;;;15.60;66.50;;;;;;5032727;28;20033;-76
2021/05/01 00:44:12;;;;;;;4.30;3.90;;;15.60;66.50;;;;;;5032662;28;20051;-75
2021/05/01 00:46:38;;;;;;;4.40;3.55;;;15.60;66.60;;;;;;5032863;28;20037;-74
2021/05/01 00:49:05;;;;;;;4.28;3.88;;;15.50;66.60;;;;;;5032700;28;20080;-75
2021/05/01 00:51:32;;;;;;;6.35;4.60;;;15.60;66.50;;;;;;5032178;28;20029;-75
2021/05/01 00:53:59;;;;;;;4.57;4.00;;;15.50;66.50;;;;;;5032627;28;20041;-74
2021/05/01 00:56:25;;;;;;;3.53;3.22;;;15.60;66.60;;;;;;5032572;28;20046;-74
2021/05/01 00:58:51;;;;;;;4.03;3.55;;;15.60;66.50;;;;;;5032653;28;20398;-74
2021/05/01 01:01:18;;;;;;;4.78;3.67;;;15.60;66.70;;;;;;5032272;28;20044;-75
2021/05/01 01:03:46;;;;;;;4.38;3.25;;;15.60;67.10;;;;;;5032366;28;20041;-74
2021/05/01 01:06:13;;;;;;;4.38;3.97;;;15.60;67.00;;;;;;5014483;28;20102;-74
2021/05/01 01:08:41;;;;;;;5.25;4.00;;;15.60;67.10;;;;;;5047916;28;20040;-75
2021/05/01 01:11:07;;;;;;;4.32;3.92;;;15.70;67.10;;;;;;5047786;28;20502;-75
2021/05/01 01:13:33;;;;;;;4.38;3.97;;;15.70;67.10;;;;;;5032355;28;20073;-75
2021/05/01 01:15:59;;;;;;;3.95;3.60;;;15.70;66.80;;;;;;5032439;28;20045;-76
2021/05/01 01:18:25;;;;;;;4.47;4.03;;;15.70;66.50;;;;;;5033487;28;20554;-74
2021/05/01 01:20:51;;;;;;;5.15;4.10;;;15.70;66.20;;;;;;5051650;28;20128;-74
2021/05/01 01:23:17;;;;;;;4.63;4.22;;;15.70;66.00;;;;;;5036322;28;20033;-74
2021/05/01 01:25:43;;;;;;;5.28;4.78;;;15.70;65.80;;;;;;5036469;28;20509;-73
2021/05/01 01:28:09;;;;;;;5.32;4.82;;;15.70;65.80;;;;;;5036446;28;20136;-74
2021/05/01 01:30:35;;;;;;;5.47;4.97;;;15.60;65.70;;;;;;5036171;28;20037;-73
2021/05/01 01:33:11;;;;;;;5.45;4.95;;;15.60;65.70;;;;;;5035838;28;20037;-75
2021/05/01 01:35:38;;;;;;;6.30;5.10;;;15.50;65.60;;;;;;5034796;28;20037;-74
2021/05/01 01:38:06;;;;;;;5.28;4.60;;;15.50;65.60;;;;;;5036124;28;20444;-76
2021/05/01 01:40:32;;;;;;;5.32;4.57;;;15.50;65.60;;;;;;5036044;28;20040;-74
2021/05/01 01:42:59;;;;;;;5.75;4.68;;;15.40;65.50;;;;;;5035776;28;20033;-75
2021/05/01 01:45:29;;;;;;;4.80;4.38;;;15.40;65.50;;;;;;5051287;28;20037;-75
2021/05/01 01:47:57;;;;;;;6.05;4.65;;;15.40;65.40;;;;;;5050998;28;20132;-75
2021/05/01 01:50:24;;;;;;;6.13;5.32;;;15.40;65.40;;;;;;5051333;28;20099;-74
2021/05/01 01:52:51;;;;;;;5.25;4.70;;;15.40;65.50;;;;;;5034513;28;20152;-74
2021/05/01 01:55:20;;;;;;;4.53;4.18;;;15.30;65.50;;;;;;5050761;28;20040;-75
2021/05/01 01:57:47;;;;;;;4.45;4.05;;;15.30;65.40;;;;;;5034397;28;20393;-74
2021/05/01 02:00:16;;;;;;;5.72;5.13;;;15.30;65.50;;;;;;5035395;28;20044;-75
2021/05/01 02:02:42;;;;;;;5.25;4.75;;;15.20;65.60;;;;;;5035376;28;20045;-75
2021/05/01 02:05:10;;;;;;;5.05;4.45;;;15.20;65.60;;;;;;5035446;28;20589;-75
2021/05/01 02:07:36;;;;;;;5.88;4.88;;;15.20;65.60;;;;;;5035466;28;20132;-77
2021/05/01 02:10:05;;;;;;;4.68;4.28;;;15.20;65.50;;;;;;5035218;28;20568;-75
2021/05/01 02:12:33;;;;;;;5.32;4.22;;;15.10;65.40;;;;;;5035323;28;20033;-75
2021/05/01 02:14:59;;;;;;;4.82;4.30;;;15.10;65.40;;;;;;5035339;28;20049;-74
2021/05/01 02:17:25;;;;;;;5.25;4.75;;;15.10;65.40;;;;;;5035033;28;20547;-75
2021/05/01 02:19:51;;;;;;;4.60;4.20;;;15.10;65.40;;;;;;5035042;28;20117;-75
2021/05/01 02:22:17;;;;;;;5.03;4.53;;;15.10;65.30;;;;;;5035503;28;20042;-75
2021/05/01 02:24:43;;;;;;;3.97;3.65;;;15.10;65.30;;;;;;5034964;28;20120;-74
2021/05/01 02:27:09;;;;;;;4.15;3.72;;;15.10;65.30;;;;;;5034850;28;20036;-75
2021/05/01 02:29:35;;;;;;;3.70;3.33;;;15.10;65.20;;;;;;5034359;28;20041;-74
2021/05/01 02:32:01;;;;;;;4.68;4.28;;;15.00;65.00;;;;;;5034938;28;20044;-75
2021/05/01 02:34:27;;;;;;;4.18;3.78;;;15.10;65.00;;;;;;5035327;28;20080;-74
2021/05/01 02:36:53;;;;;;;3.72;3.42;;;15.10;64.90;;;;;;5034670;28;20074;-75
2021/05/01 02:39:19;;;;;;;4.50;4.10;;;15.10;64.80;;;;;;5033891;28;20083;-75
2021/05/01 02:41:44;;;;;;;4.13;3.72;;;15.10;64.90;;;;;;5050370;28;20045;-75
2021/05/01 02:44:10;;;;;;;4.40;3.92;;;15.00;64.80;;;;;;5034698;28;20041;-76
2021/05/01 02:46:36;;;;;;;4.50;3.65;;;15.00;64.80;;;;;;5034317;28;20045;-74
2021/05/01 02:49:02;;;;;;;5.57;4.20;;;15.00;64.80;;;;;;5034868;28;20047;-75
2021/05/01 02:51:28;;;;;;;3.65;3.35;;;15.00;64.70;;;;;;5050012;28;20038;-74
2021/05/01 02:53:54;;;;;;;5.65;3.72;;;15.00;64.60;;;;;;5034330;28;20049;-75
2021/05/01 02:56:20;;;;;;;3.75;3.45;;;15.00;64.50;;;;;;5034751;28;20037;-74
2021/05/01 02:58:46;;;;;;;3.92;3.53;;;15.00;64.50;;;;;;5034257;28;20041;-75
2021/05/01 03:01:12;;;;;;;3.72;3.35;;;15.00;64.50;;;;;;5033294;28;20045;-74
2021/05/01 03:03:39;;;;;;;3.75;3.33;;;15.00;64.50;;;;;;5034424;28;20490;-75
2021/05/01 03:06:05;;;;;;;4.97;3.60;;;15.00;64.50;;;;;;5034364;28;20029;-75
2021/05/01 03:08:31;;;;;;;3.05;2.83;;;15.00;64.40;;;;;;5034259;28;20505;-76
2021/05/01 03:10:57;;;;;;;3.45;3.15;;;15.00;64.30;;;;;;5034164;28;20049;-76
2021/05/01 03:13:22;;;;;;;3.40;3.10;;;15.00;64.30;;;;;;5034166;28;20044;-74
2021/05/01 03:15:49;;;;;;;3.50;3.20;;;15.00;64.30;;;;;;5033902;28;20108;-76
2021/05/01 03:18:15;;;;;;;3.38;3.08;;;15.00;64.30;;;;;;5049461;28;20045;-74
2021/05/01 03:20:41;;;;;;;3.72;3.42;;;15.00;64.40;;;;;;5033782;28;20045;-74
2021/05/01 03:23:08;;;;;;;3.70;3.00;;;15.00;64.30;;;;;;5034023;28;20037;-76
2021/05/01 03:25:34;;;;;;;4.18;3.47;;;15.00;64.40;;;;;;5034030;28;20509;-75
2021/05/01 03:28:00;;;;;;;3.50;3.20;;;15.00;64.30;;;;;;5033751;28;20069;-75
2021/05/01 03:30:26;;;;;;;2.95;2.75;;;15.00;64.20;;;;;;5049225;28;20040;-75
2021/05/01 03:32:52;;;;;;;3.25;2.90;;;15.00;64.10;;;;;;5034253;28;20029;-74
2021/05/01 03:35:18;;;;;;;3.20;2.80;;;15.00;64.20;;;;;;5033652;28;20092;-75
2021/05/01 03:37:44;;;;;;;3.03;2.63;;;15.00;64.10;;;;;;5032550;28;20129;-76
2021/05/01 03:40:12;;;;;;;3.28;2.97;;;15.00;64.20;;;;;;5032267;28;20069;-75
2021/05/01 03:42:38;;;;;;;3.00;2.70;;;15.00;64.10;;;;;;5048301;28;20498;-75
2021/05/01 03:45:05;;;;;;;3.30;3.00;;;15.10;64.00;;;;;;5033512;28;20041;-75
2021/05/01 03:47:30;;;;;;;3.67;2.88;;;15.10;64.00;;;;;;5049000;28;20144;-73
2021/05/01 03:49:57;;;;;;;4.55;2.90;;;15.10;63.90;;;;;;5033227;28;20128;-75
2021/05/01 03:52:23;;;;;;;3.88;3.13;;;15.10;63.90;;;;;;5033308;28;20076;-76
2021/05/01 03:54:48;;;;;;;3.20;2.90;;;15.10;63.90;;;;;;5033343;28;20096;-76
2021/05/01 03:57:14;;;;;;;2.90;2.70;;;15.10;63.90;;;;;;5033292;28;20040;-75
2021/05/01 03:59:40;;;;;;;3.05;2.80;;;15.10;63.80;;;;;;5032089;28;20436;-77
2021/05/01 04:02:06;;;;;;;3.35;3.08;;;15.10;63.80;;;;;;5033648;28;20033;-75
2021/05/01 04:04:33;;;;;;;3.10;2.83;;;15.10;63.80;;;;;;5033403;28;20033;-77
2021/05/01 04:06:58;;;;;;;3.33;2.65;;;15.00;63.80;;;;;;5033136;28;20037;-78
2021/05/01 04:09:25;;;;;;;2.78;2.58;;;15.10;63.80;;;;;;5033210;28;20490;-75
2021/05/01 04:11:51;;;;;;;3.63;2.95;;;15.00;63.80;;;;;;5033114;28;20033;-74
2021/05/01 04:14:17;;;;;;;4.72;2.97;;;15.00;63.90;;;;;;5032776;28;20102;-77
2021/05/01 04:16:43;;;;;;;3.55;2.92;;;15.00;63.90;;;;;;5033015;28;20460;-75
2021/05/01 04:19:08;;;;;;;3.30;2.97;;;15.00;63.90;;;;;;5033405;28;20083;-79
2021/05/01 04:21:34;;;;;;;3.45;2.70;;;14.90;64.40;;;;;;5032640;28;20037;-75
2021/05/01 04:24:00;;;;;;;3.30;2.78;;;15.00;64.40;;;;;;5032610;28;20052;-75
2021/05/01 04:26:26;;;;;;;3.95;2.85;;;15.00;64.60;;;;;;5032580;28;20133;-74
2021/05/01 04:28:52;;;;;;;3.35;3.05;;;15.00;64.80;;;;;;5032586;28;20068;-74
2021/05/01 04:31:19;;;;;;;3.78;3.10;;;15.00;64.80;;;;;;5032819;28;20041;-74
2021/05/01 04:33:45;;;;;;;2.83;2.60;;;15.10;64.80;;;;;;5032607;28;20048;-75
2021/05/01 04:36:12;;;;;;;3.60;3.30;;;15.10;64.80;;;;;;5032618;28;20519;-75
2021/05/01 04:38:38;;;;;;;3.75;3.40;;;15.20;64.70;;;;;;5032353;28;20072;-75
2021/05/01 04:41:04;;;;;;;3.92;3.50;;;15.20;64.70;;;;;;5048065;28;20091;-74
2021/05/01 04:43:31;;;;;;;3.85;3.13;;;15.20;64.90;;;;;;5032548;28;20515;-74
2021/05/01 04:45:58;;;;;;;2.72;2.53;;;15.10;65.40;;;;;;5031246;28;20045;-76
2021/05/01 04:48:24;;;;;;;3.03;2.83;;;15.10;65.00;;;;;;5032278;28;20516;-75
2021/05/01 04:50:51;;;;;;;2.95;2.60;;;15.00;64.90;;;;;;5031154;28;20383;-75
2021/05/01 04:53:17;;;;;;;2.47;2.28;;;15.00;65.00;;;;;;5032069;28;20490;-75
2021/05/01 04:55:43;;;;;;;2.83;2.13;;;15.00;65.00;;;;;;5047760;28;20091;-73
2021/05/01 04:58:10;;;;;;;2.20;2.00;;;15.00;64.90;;;;;;5032444;28;20033;-75
2021/05/01 05:00:36;;;;;;;1.70;1.60;;;15.00;64.90;;;;;;5031157;28;20509;-75
2021/05/01 05:03:02;;;;;;;2.00;1.75;;;15.00;64.90;;;;;;5032400;28;20037;-75
2021/05/01 05:05:27;;;;;;;1.70;1.60;;;15.00;64.90;;;;;;5032726;28;20460;-75
2021/05/01 05:07:53;;;;;;;1.52;1.42;;;15.00;64.80;;;;;;5032218;28;20065;-76
2021/05/01 05:10:19;;;;;;;2.25;1.17;;;14.90;64.70;;;;;;5032361;28;20375;-75
2021/05/01 05:12:47;;;;;;;1.42;1.33;;;14.90;64.60;;;;;;5031774;28;20095;-74
2021/05/01 05:15:14;;;;;;;1.23;1.13;;;15.00;64.60;;;;;;5047472;28;20405;-74
2021/05/01 05:17:40;;;;;;;1.65;1.50;;;15.00;64.50;;;;;;5047228;28;20107;-76
2021/05/01 05:20:07;;;;;;;1.42;1.33;;;15.00;64.50;;;;;;5030849;28;20091;-73
2021/05/01 05:22:33;;;;;;;1.58;1.48;;;15.00;64.50;;;;;;5032194;28;20087;-71
2021/05/01 05:24:59;;;;;;;1.05;1.05;;;15.00;64.30;;;;;;5032101;28;20045;-72
2021/05/01 05:27:25;;;;;;;1.08;0.98;;;15.00;64.20;;;;;;5030935;28;20048;-73
2021/05/01 05:29:53;;;;;;;1.30;1.30;;;15.00;64.10;;;;;;5030781;28;20040;-72
2021/05/01 05:32:21;;;;;;;0.82;0.82;;;15.10;64.00;;;;;;5031831;28;20041;-74
2021/05/01 05:34:47;;;;;;;1.42;1.10;;;15.10;63.80;;;;;;5031925;28;20055;-73
2021/05/01 05:37:14;;;;;;;1.10;1.10;;;15.20;63.80;;;;;;5031865;28;20042;-72
2021/05/01 05:39:41;;;;;;;1.00;1.00;;;15.20;63.60;;;;;;5031916;28;20112;-73
2021/05/01 05:42:10;;;;;;;1.02;0.90;;;15.20;63.60;;;;;;5013969;28;20041;-73
2021/05/01 05:44:37;;;;;;;1.25;1.00;;;15.30;63.50;;;;;;5031700;28;20037;-73
2021/05/01 05:47:03;;;;;;;1.50;1.00;;;15.20;63.20;;;;;;5030325;28;20030;-72
2021/05/01 05:49:29;;;;;;;0.90;0.90;;;15.20;63.10;;;;;;5031971;28;20044;-71
2021/05/01 05:51:55;;;;;;;1.00;1.00;;;15.20;63.00;;;;;;5030466;28;20504;-74
2021/05/01 05:54:21;;;;;;;1.02;1.00;;;15.20;62.90;;;;;;5031543;28;20029;-71
2021/05/01 05:56:47;;;;;;;2.05;1.10;;;15.20;62.80;;;;;;5031835;28;20041;-73
2021/05/01 05:59:13;;;;;;;1.45;1.17;;;15.30;62.70;;;;;;5032103;28;20120;-75
2021/05/01 06:01:42;;;;;;;1.20;1.10;;;15.30;62.50;;;;;;5031883;28;20038;-75
2021/05/01 06:04:14;;;;;;;1.20;0.98;;;15.40;62.20;;;;;;5015011;28;20047;-74
2021/05/01 06:06:48;;;;;;;0.93;0.85;;;15.50;61.90;;;;;;5035361;28;20044;-75
2021/05/01 06:09:15;;;;;;;1.95;0.77;;;15.60;61.50;;;;;;5050706;28;20037;-73
2021/05/01 06:11:43;;;;;;;3.38;0.98;;;15.70;61.40;;;;;;5034650;28;20041;-73
2021/05/01 06:14:10;;;;;;;1.60;0.90;;;15.90;60.90;;;;;;5033459;28;20566;-73
2021/05/01 06:16:38;;;;;;;0.70;0.70;;;16.00;60.40;;;;;;5033671;28;20107;-73
2021/05/01 06:19:04;;;;;;;1.25;0.90;;;16.10;60.00;;;;;;5034888;28;20048;-73
2021/05/01 06:21:31;;;;;;;1.10;1.00;;;16.10;59.70;;;;;;5035023;28;20029;-75
2021/05/01 06:23:57;;;;;;;0.90;0.90;;;16.20;59.20;;;;;;5034635;28;20061;-77
2021/05/01 06:26:23;;;;;;;1.17;1.08;;;16.40;59.00;;;;;;5034080;28;20376;-75
2021/05/01 06:28:50;;;;;;;2.05;1.00;;;16.90;59.00;;;;;;5033635;28;20049;-78
2021/05/01 06:31:15;;;;;;;0.95;0.90;;;17.20;58.30;;;;;;5033525;28;20560;-79
2021/05/01 06:33:41;;;;;;;2.75;0.80;;;17.50;57.70;;;;;;5034615;28;20033;-76
2021/05/01 06:36:10;;;;;;;1.73;0.80;;;17.70;57.70;;;;;;5033427;28;20131;-78
2021/05/01 06:38:36;;;;;;;1.10;1.00;;;18.00;57.50;;;;;;5034538;28;20120;-75
2021/05/01 06:41:07;;;;;;;1.67;0.90;;;18.10;56.80;;;;;;5034298;28;20145;-76
2021/05/01 06:44:01;;;;;;;1.20;1.15;;;18.20;55.80;;;;;;5049970;28;20048;-79
2021/05/01 06:46:29;;;;;;;1.20;1.10;;;18.30;54.90;;;;;;5032891;28;20076;-79
2021/05/01 06:48:58;;;;;;;1.40;1.25;;;18.30;54.30;;;;;;5032932;28;20091;-78
2021/05/01 06:51:25;;;;;;;1.40;1.30;;;18.30;53.70;;;;;;5049727;28;20127;-78
2021/05/01 06:53:51;;;;;;;1.50;1.40;;;18.40;53.10;;;;;;5049487;28;20045;-78
2021/05/01 06:56:17;;;;;;;3.63;1.60;;;18.60;52.90;;;;;;5053640;28;20048;-77
2021/05/01 06:58:45;;;;;;;3.10;1.40;;;18.90;54.00;;;;;;5052527;28;20052;-77
2021/05/01 07:01:12;;;;;;;4.38;1.40;;;19.30;54.60;;;;;;5051820;28;20513;-86
2021/05/01 07:03:44;;;;;;;3.03;1.83;;;19.40;54.10;;;;;;5055449;28;20143;-80
2021/05/01 07:06:18;;;;;;;4.70;1.95;;;19.60;54.10;;;;;;5054138;28;20052;-79
2021/05/01 07:08:45;;;;;;;6.97;2.58;;;19.80;54.30;;;;;;5053696;28;20080;-77
2021/05/01 07:11:13;;;;;;;4.07;2.63;;;20.10;54.00;;;;;;5054209;28;20545;-79
2021/05/01 07:13:40;;;;;;;3.50;2.20;;;20.20;53.90;;;;;;5054490;28;20497;-77
2021/05/01 07:16:10;;;;;;;4.10;2.38;;;20.50;53.20;;;;;;5050618;28;20052;-77
2021/05/01 07:18:41;;;;;;;2.38;2.00;;;20.50;52.20;;;;;;5054403;28;20123;-77
2021/05/01 07:21:08;;;;;;;2.45;1.75;;;20.50;52.30;;;;;;5054004;28;20048;-78
2021/05/01 07:23:35;;;;;;;3.53;1.90;;;20.40;51.90;;;;;;5052339;28;20106;-77
2021/05/01 07:26:02;;;;;;;6.47;2.00;;;20.30;52.50;;;;;;5052521;28;20028;-77
2021/05/01 07:28:34;;;;;;;4.57;1.80;;;20.40;52.30;;;;;;5051110;28;20036;-77
2021/05/01 07:31:05;;;;;;;2.60;1.73;;;20.60;52.10;;;;;;5052038;28;20050;-75
2021/05/01 07:33:32;;;;;;;2.72;1.60;;;20.70;51.20;;;;;;5052242;28;20086;-76
2021/05/01 07:36:11;;;;;;;3.30;1.48;;;20.80;48.80;;;;;;5034437;28;20033;-79
2021/05/01 07:38:38;;;;;;;3.08;1.33;;;20.70;46.70;;;;;;5042110;28;20224;-78
2021/05/01 07:41:06;;;;;;;1.65;1.38;;;20.80;45.80;;;;;;5054552;28;20493;-81
2021/05/01 07:43:32;;;;;;;1.17;1.08;;;20.60;43.70;;;;;;5051809;28;20086;-83
2021/05/01 07:46:06;;;;;;;1.27;1.17;;;20.50;43.70;;;;;;5053406;28;20060;-77
2021/05/01 07:48:34;;;;;;;1.25;1.15;;;20.50;43.60;;;;;;5035542;28;20039;-76
2021/05/01 07:51:02;;;;;;;2.88;1.33;;;20.40;43.40;;;;;;5054144;28;20047;-81
2021/05/01 07:53:28;;;;;;;1.40;1.30;;;20.30;43.80;;;;;;5052774;28;20082;-79
2021/05/01 07:55:54;;;;;;;2.75;1.55;;;20.30;44.70;;;;;;5053089;28;20426;-75
2021/05/01 07:58:20;;;;;;;1.27;1.17;;;20.30;44.40;;;;;;5051122;28;20036;-77
2021/05/01 08:00:47;;;;;;;2.78;1.20;;;20.20;44.10;;;;;;5052944;28;20037;-77
2021/05/01 08:03:14;;;;;;;2.03;1.15;;;20.20;44.00;;;;;;5053297;28;20116;-77
2021/05/01 08:05:40;;;;;;;2.38;1.23;;;20.10;44.20;;;;;;5052906;28;20552;-75
2021/05/01 08:08:06;;;;;;;1.55;1.17;;;20.10;43.90;;;;;;5051597;28;20127;-76
2021/05/01 08:10:32;;;;;;;4.88;1.45;;;20.10;43.70;;;;;;5053731;28;20044;-77
2021/05/01 08:12:58;;;;;;;5.15;0.98;;;20.00;43.20;;;;;;5052986;28;20067;-80
2021/05/01 08:15:28;;;;;;;2.80;1.17;;;19.90;42.30;;;;;;5051780;28;20095;-76
2021/05/01 08:17:54;;;;;;;3.28;0.90;;;19.90;42.40;;;;;;5050934;28;20080;-78
2021/05/01 08:20:21;;;;;;;2.00;1.20;;;19.80;42.00;;;;;;5051484;28;20400;-76
2021/05/01 08:22:47;;;;;;;3.88;1.20;;;19.80;41.20;;;;;;5052838;28;20122;-79
2021/05/01 08:44:39;;;;;;;7.78;1.98;;;20.30;48.50;;;;;;4856701;29;20073;-67
2021/05/01 08:47:07;;;;;;;1.67;1.20;;;20.30;48.00;;;;;;4858082;29;20081;-78
2021/05/01 08:49:34;;;;;;;3.45;1.67;;;20.40;47.80;;;;;;4826067;29;20033;-71
2021/05/01 08:52:00;;;;;;;4.15;1.40;;;20.40;47.60;;;;;;4841390;29;20034;-72
2021/05/01 08:54:26;;;;;;;3.83;1.52;;;20.40;47.60;;;;;;4826222;29;20141;-78
2021/05/01 08:56:53;;;;;;;6.13;1.60;;;20.50;47.90;;;;;;4841191;29;20505;-69
2021/05/01 08:59:19;;;;;;;3.90;1.65;;;20.40;47.60;;;;;;4841062;29;20057;-70
2021/05/01 09:01:50;;;;;;;4.93;1.85;;;20.40;48.10;;;;;;4840949;29;20044;-67
2021/05/01 09:04:16;;;;;;;4.20;1.90;;;20.40;49.10;;;;;;4826109;29;20076;-68
2021/05/01 09:06:42;;;;;;;3.03;1.70;;;20.30;48.80;;;;;;4840893;29;20080;-64
2021/05/01 09:09:11;;;;;;;3.25;1.50;;;20.40;48.70;;;;;;4857413;29;20046;-67
2021/05/01 09:11:45;;;;;;;6.95;1.50;;;20.30;47.60;;;;;;4840561;29;20045;-66
2021/05/01 09:14:26;;;;;;;1.95;1.10;;;20.30;47.60;;;;;;4810282;29;20534;-66
2021/05/01 09:16:58;;;;;;;3.17;1.50;;;20.30;47.50;;;;;;4825401;29;20037;-66
2021/05/01 09:19:37;;;;;;;7.07;1.30;;;20.30;47.70;;;;;;4825916;29;20095;-66
2021/05/01 09:22:14;;;;;;;1.90;1.25;;;20.30;47.40;;;;;;4825740;29;20037;-66
2021/05/01 09:24:43;;;;;;;5.05;1.40;;;20.30;47.40;;;;;;4840771;29;20045;-66
2021/05/01 09:27:14;;;;;;;8.40;1.65;;;20.30;46.20;;;;;;4856925;29;20515;-68
2021/05/01 09:29:41;;;;;;;9.35;1.73;;;20.30;46.70;;;;;;4824807;29;20234;-71
2021/05/01 09:32:24;;;;;;;8.50;2.45;;;20.30;48.20;;;;;;4856812;29;20061;-73
2021/05/01 09:34:52;;;;;;;6.00;2.50;;;20.30;48.10;;;;;;4840539;29;20048;-75
2021/05/01 09:37:21;;;;;;;10.02;2.13;;;20.30;47.60;;;;;;4853015;29;20453;-77
2021/05/01 09:39:53;;;;;;;3.60;2.00;;;20.20;47.70;;;;;;4828063;29;20042;-74
2021/05/01 09:42:21;;;;;;;4.88;1.60;;;20.20;47.00;;;;;;4812787;29;20036;-74
2021/05/01 09:45:07;;;;;;;3.33;1.90;;;20.10;46.80;;;;;;4828259;29;20504;-74
2021/05/01 09:47:33;;;;;;;4.35;1.60;;;20.10;46.40;;;;;;4828535;29;20061;-74
2021/05/01 09:49:59;;;;;;;3.95;1.55;;;20.10;46.00;;;;;;4844419;29;20462;-72
2021/05/01 09:52:26;;;;;;;4.30;1.92;;;20.00;45.80;;;;;;4812896;29;20069;-74
2021/05/01 09:54:52;;;;;;;7.55;1.48;;;20.00;45.90;;;;;;4813163;29;20045;-74
2021/05/01 09:57:21;;;;;;;2.65;1.17;;;20.00;45.20;;;;;;4812644;29;20042;-72
2021/05/01 09:59:50;;;;;;;3.08;1.38;;;20.00;45.10;;;;;;4827893;29;20105;-74
2021/05/01 10:02:20;;;;;;;2.20;1.30;;;20.00;45.10;;;;;;4812666;29;20048;-74
2021/05/01 10:05:09;;;;;;;1.88;1.52;;;20.00;44.90;;;;;;4844005;29;20504;-73
2021/05/01 10:07:39;;;;;;;2.22;1.33;;;20.00;44.50;;;;;;4813125;29;20046;-77
2021/05/01 10:10:06;;;;;;;3.42;1.90;;;20.00;44.10;;;;;;4827765;29;20081;-74
2021/05/01 10:12:37;;;;;;;5.22;1.23;;;20.00;44.20;;;;;;4812181;29;20049;-72
2021/05/01 10:15:13;;;;;;;2.03;0.98;;;20.00;43.60;;;;;;4812458;29;20041;-73
2021/05/01 10:17:40;;;;;;;3.88;1.58;;;19.90;42.80;;;;;;4812198;29;20042;-74
2021/05/01 10:20:07;;;;;;;4.32;1.50;;;19.90;43.00;;;;;;4843652;29;20048;-73
2021/05/01 10:22:39;;;;;;;1.83;1.10;;;19.80;43.20;;;;;;4827600;29;20052;-73
2021/05/01 10:25:18;;;;;;;1.45;1.20;;;19.80;42.70;;;;;;4827607;29;20048;-73
2021/05/01 10:27:53;;;;;;;4.97;1.58;;;19.80;42.30;;;;;;4843745;29;20110;-73
2021/05/01 10:30:48;;;;;;;2.00;1.15;;;19.70;42.50;;;;;;4812132;29;20081;-73
2021/05/01 10:33:24;;;;;;;1.77;1.02;;;19.70;42.60;;;;;;4824047;29;20057;-73
2021/05/01 10:36:01;;;;;;;2.50;1.30;;;19.70;42.60;;;;;;4812303;29;20136;-73
2021/05/01 10:38:29;;;;;;;1.40;1.20;;;19.70;41.60;;;;;;4827004;29;20058;-73
2021/05/01 10:41:00;;;;;;;2.15;1.30;;;19.60;41.50;;;;;;4826945;29;20412;-73
2021/05/01 10:43:29;;;;;;;1.58;1.20;;;19.60;41.70;;;;;;4843373;29;20069;-74
2021/05/01 10:46:05;;;;;;;3.20;1.45;;;19.60;41.80;;;;;;4811858;29;20532;-73
2021/05/01 10:48:54;;;;;;;3.20;1.10;;;19.70;41.60;;;;;;4811322;29;20046;-72
2021/05/01 10:51:35;;;;;;;1.83;0.80;;;19.60;41.20;;;;;;4826596;29;20038;-74
2021/05/01 10:54:10;;;;;;;1.40;1.30;;;19.60;41.40;;;;;;4827386;29;20129;-75
2021/05/01 10:56:43;;;;;;;1.65;1.15;;;19.60;40.90;;;;;;4826739;29;20077;-73
2021/05/01 10:59:31;;;;;;;2.30;1.02;;;19.60;41.00;;;;;;4843339;29;20042;-73
2021/05/01 11:02:00;;;;;;;0.82;0.82;;;19.60;40.90;;;;;;4811430;29;20107;-73
2021/05/01 11:04:33;;;;;;;1.00;0.90;;;19.60;40.80;;;;;;4826809;29;20045;-72
2021/05/01 11:07:09;;;;;;;1.52;0.93;;;19.60;40.90;;;;;;4826662;29;20096;-74
2021/05/01 11:09:46;;;;;;;1.30;0.80;;;19.60;40.40;;;;;;4811489;29;20445;-72
2021/05/01 11:12:14;;;;;;;2.42;0.70;;;19.60;40.50;;;;;;4811333;29;20073;-73
2021/05/01 11:15:02;;;;;;;2.38;0.98;;;19.70;40.50;;;;;;4826763;29;20065;-72
2021/05/01 11:17:32;;;;;;;1.45;1.08;;;19.70;39.80;;;;;;4811590;29;20556;-74
2021/05/01 11:20:11;;;;;;;1.10;0.93;;;19.60;39.80;;;;;;4826256;29;20480;-79
2021/05/01 11:22:39;;;;;;;2.22;1.30;;;19.60;39.80;;;;;;4826359;29;20037;-81
2021/05/01 11:25:09;;;;;;;2.58;1.00;;;19.60;39.30;;;;;;4843091;29;20034;-81
2021/05/01 11:27:41;;;;;;;4.68;1.08;;;19.40;38.50;;;;;;4811992;29;20478;-80
2021/05/01 11:30:12;;;;;;;1.77;1.00;;;19.30;38.60;;;;;;4826884;29;20034;-77
2021/05/01 11:32:39;;;;;;;1.27;1.10;;;19.30;39.00;;;;;;4842735;29;20030;-74
2021/05/01 11:35:09;;;;;;;3.88;1.00;;;19.20;38.50;;;;;;4811803;29;20041;-82
2021/05/01 11:37:51;;;;;;;2.78;0.90;;;19.20;38.40;;;;;;4812804;29;20052;-75
2021/05/01 11:40:21;;;;;;;2.25;1.23;;;19.10;38.60;;;;;;4826787;29;20038;-78
2021/05/01 11:42:48;;;;;;;1.30;1.00;;;19.00;38.50;;;;;;4823082;29;20425;-79
2021/05/01 11:45:39;;;;;;;2.05;1.00;;;18.90;38.50;;;;;;4823061;29;20053;-77
2021/05/01 11:48:08;;;;;;;2.60;1.13;;;18.80;38.10;;;;;;4800168;29;20465;-75
2021/05/01 11:50:36;;;;;;;1.25;1.05;;;18.80;38.20;;;;;;4823054;29;20042;-76
2021/05/01 11:53:20;;;;;;;1.70;0.93;;;18.70;37.60;;;;;;4807613;29;20119;-79
2021/05/01 11:56:16;;;;;;;1.23;0.88;;;18.50;37.40;;;;;;4807981;29;20045;-74
2021/05/01 11:58:43;;;;;;;2.92;1.33;;;18.40;37.90;;;;;;4823500;29;20054;-75
2021/05/01 12:01:22;;;;;;;1.50;1.15;;;18.40;38.50;;;;;;4824202;29;20038;-75
2021/05/01 12:03:58;;;;;;;4.18;0.98;;;18.40;38.60;;;;;;4807905;29;20038;-77
2021/05/01 12:06:40;;;;;;;2.72;0.90;;;18.40;38.80;;;;;;4806942;29;20054;-75
2021/05/01 12:09:15;;;;;;;2.03;1.05;;;18.40;38.90;;;;;;4823452;29;20390;-74
2021/05/01 12:11:44;;;;;;;;;;;18.30;38.80;;;;;;4821547;29;20045;-74
2021/05/01 12:14:11;;;;;;;3.50;1.13;;;18.30;38.40;;;;;;4822231;29;19917;-75
2021/05/01 12:16:42;;;;;;;4.20;1.20;;;18.30;38.50;;;;;;4823676;29;20076;-77
2021/05/01 12:19:18;;;;;;;3.42;1.23;;;18.20;37.90;;;;;;4822590;29;20038;-74
2021/05/01 12:21:44;;;;;;;1.35;1.00;;;18.20;38.10;;;;;;4820712;29;20042;-77
2021/05/01 12:24:30;;;;;;;5.03;1.20;;;18.10;38.60;;;;;;4824761;29;20165;-82
2021/05/01 12:26:58;;;;;;;2.53;1.42;;;18.20;39.50;;;;;;4808168;29;20121;-79
2021/05/01 12:29:29;;;;;;;2.35;1.00;;;18.10;38.20;;;;;;4826533;29;20046;-79
2021/05/01 12:32:06;;;;;;;1.63;1.23;;;18.10;37.90;;;;;;4807850;29;20516;-79
2021/05/01 12:34:50;;;;;;;1.42;1.20;;;18.00;37.60;;;;;;4823395;29;20528;-77
2021/05/01 12:37:19;;;;;;;2.60;1.10;;;17.90;38.10;;;;;;4806806;29;20043;-82
2021/05/01 12:39:46;;;;;;;3.72;1.10;;;17.90;38.30;;;;;;4822277;29;20039;-77
2021/05/01 12:42:46;;;;;;;1.90;0.90;;;17.90;38.60;;;;;;4822531;29;20038;-77
2021/05/01 12:45:44;;;;;;;3.08;1.35;;;17.90;39.00;;;;;;4788314;29;20063;-73
2021/05/01 12:48:10;;;;;;;1.60;1.08;;;17.90;38.80;;;;;;4772757;29;20047;-72
2021/05/01 12:50:37;;;;;;;1.33;1.10;;;17.90;39.30;;;;;;4804835;29;20119;-74
2021/05/01 12:53:35;;;;;;;3.58;1.20;;;17.90;39.30;;;;;;4803668;29;20034;-74
2021/05/01 12:56:25;;;;;;;3.38;1.30;;;17.90;39.20;;;;;;4764733;29;20547;-75
2021/05/01 12:59:16;;;;;;;2.05;1.27;;;17.90;39.20;;;;;;4804151;29;20050;-74
2021/05/01 13:01:43;;;;;;;5.35;1.30;;;17.90;39.10;;;;;;4805284;29;20043;-73
2021/05/01 13:04:20;;;;;;;2.20;1.17;;;17.90;39.10;;;;;;4803753;29;20047;-75
2021/05/01 13:06:56;;;;;;;5.28;1.65;;;17.90;39.10;;;;;;4788875;29;20042;-76
2021/05/01 13:09:29;;;;;;;1.77;1.15;;;17.90;38.90;;;;;;4788848;29;20043;-72
2021/05/01 13:12:09;;;;;;;3.22;1.20;;;17.90;38.50;;;;;;4803868;29;20529;-74
2021/05/01 13:14:45;;;;;;;1.52;1.17;;;17.80;38.50;;;;;;4807441;29;20031;-74
2021/05/01 13:17:15;;;;;;;2.95;1.15;;;17.80;38.60;;;;;;4807149;29;20137;-76